createdAt,value
2022-12-29T00:00:06.761Z,1.85
2022-12-29T00:02:33.668Z,1.90
2022-12-29T00:05:00.465Z,1.70
2022-12-29T00:07:27.207Z,2.30
2022-12-29T00:09:54.022Z,1.95
2022-12-29T00:12:20.723Z,1.90
2022-12-29T00:15:06.005Z,1.90
2022-12-29T00:17:32.762Z,2.17
2022-12-29T00:20:18.118Z,1.85
2022-12-29T00:23:03.430Z,2.20
2022-12-29T00:25:48.992Z,1.77
2022-12-29T00:28:34.104Z,1.75
2022-12-29T00:31:20.479Z,1.50
2022-12-29T00:34:05.900Z,1.50
2022-12-29T00:36:34.477Z,1.42
2022-12-29T00:39:23.447Z,1.50
2022-12-29T00:42:08.656Z,1.73
2022-12-29T00:44:35.387Z,1.20
2022-12-29T00:47:04.380Z,1.35
2022-12-29T00:49:31.830Z,1.25
2022-12-29T00:52:01.019Z,2.08
2022-12-29T00:54:29.567Z,1.33
2022-12-29T00:56:56.328Z,1.50
2022-12-29T00:59:25.155Z,1.40
2022-12-29T01:01:53.372Z,1.35
2022-12-29T01:04:21.566Z,1.42
2022-12-29T01:06:48.394Z,1.05
2022-12-29T01:09:33.590Z,1.30
2022-12-29T01:12:00.854Z,1.27
2022-12-29T01:14:28.121Z,1.40
2022-12-29T01:16:55.943Z,1.25
2022-12-29T01:19:23.057Z,1.50
2022-12-29T01:21:49.941Z,1.10
2022-12-29T01:24:17.967Z,1.40
2022-12-29T01:26:45.165Z,1.83
2022-12-29T01:29:11.969Z,1.38
2022-12-29T01:31:38.731Z,2.13
2022-12-29T01:34:05.751Z,1.15
2022-12-29T01:36:32.627Z,1.13
2022-12-29T01:38:59.406Z,1.05
2022-12-29T01:41:26.725Z,1.55
2022-12-29T01:43:58.631Z,1.63
2022-12-29T01:46:32.433Z,1.17
2022-12-29T01:49:03.665Z,1.55
2022-12-29T01:51:31.302Z,1.17
2022-12-29T01:53:58.464Z,1.23
2022-12-29T01:56:25.245Z,1.38
2022-12-29T01:59:00.028Z,1.42
2022-12-29T02:01:26.890Z,1.20
2022-12-29T02:03:53.706Z,1.60
2022-12-29T02:06:23.619Z,1.13
2022-12-29T02:08:51.567Z,1.40
2022-12-29T02:11:18.290Z,1.27
2022-12-29T02:13:45.090Z,1.10
2022-12-29T02:16:30.168Z,1.30
2022-12-29T02:19:15.095Z,1.20
2022-12-29T02:21:56.944Z,1.00
2022-12-29T02:24:44.728Z,1.50
2022-12-29T02:27:33.205Z,1.30
2022-12-29T02:30:07.478Z,1.17
2022-12-29T02:32:44.132Z,0.80
2022-12-29T02:35:20.032Z,1.08
2022-12-29T02:38:04.838Z,1.02
2022-12-29T02:40:42.534Z,1.10
2022-12-29T02:43:15.279Z,1.00
2022-12-29T02:45:47.721Z,1.10
2022-12-29T02:48:28.547Z,1.00
2022-12-29T02:51:22.612Z,1.35
2022-12-29T02:54:07.698Z,0.80
2022-12-29T02:56:34.363Z,1.30
2022-12-29T02:59:01.311Z,1.15
2022-12-29T03:01:38.243Z,1.45
2022-12-29T03:04:27.968Z,1.35
2022-12-29T03:07:01.801Z,1.02
2022-12-29T03:10:02.347Z,1.10
2022-12-29T03:12:55.163Z,1.10
2022-12-29T03:15:49.016Z,1.17
2022-12-29T03:18:20.793Z,1.10
2022-12-29T03:21:16.012Z,1.30
2022-12-29T03:23:48.581Z,0.90
2022-12-29T03:26:16.118Z,1.05
2022-12-29T03:28:53.510Z,0.95
2022-12-29T03:31:21.358Z,1.00
2022-12-29T03:33:48.090Z,1.00
2022-12-29T03:36:19.664Z,0.93
2022-12-29T03:38:53.226Z,0.95
2022-12-29T03:41:21.995Z,0.80
2022-12-29T03:43:48.672Z,0.80
2022-12-29T03:46:15.405Z,0.75
2022-12-29T03:48:42.177Z,1.08
2022-12-29T03:51:08.861Z,1.08
2022-12-29T03:53:35.621Z,1.00
2022-12-29T03:56:02.337Z,0.90
2022-12-29T03:58:29.045Z,1.10
2022-12-29T04:00:55.783Z,1.30
2022-12-29T04:03:22.625Z,0.70
2022-12-29T04:05:49.423Z,0.80
2022-12-29T04:08:16.218Z,0.80
2022-12-29T04:10:42.889Z,1.33
2022-12-29T04:13:09.609Z,0.80
2022-12-29T04:15:36.417Z,0.95
2022-12-29T04:18:03.187Z,0.80
2022-12-29T04:20:48.483Z,0.88
2022-12-29T04:23:15.216Z,1.10
2022-12-29T04:25:41.931Z,0.80
2022-12-29T04:28:09.136Z,1.25
2022-12-29T04:30:36.096Z,1.15
2022-12-29T04:33:02.810Z,0.70
2022-12-29T04:35:29.525Z,0.95
2022-12-29T04:37:56.243Z,0.77
2022-12-29T04:40:24.318Z,1.13
2022-12-29T04:42:51.453Z,1.10
2022-12-29T04:45:18.237Z,0.93
2022-12-29T04:47:45.070Z,0.70
2022-12-29T04:50:14.773Z,0.93
2022-12-29T04:52:41.485Z,0.75
2022-12-29T04:55:08.607Z,1.20
2022-12-29T04:57:35.329Z,0.98
2022-12-29T05:00:02.554Z,1.05
2022-12-29T05:02:29.624Z,1.30
2022-12-29T05:04:57.001Z,0.90
2022-12-29T05:07:23.740Z,1.50
2022-12-29T05:09:50.556Z,1.30
2022-12-29T05:12:17.330Z,1.17
2022-12-29T05:14:44.717Z,1.00
2022-12-29T05:17:11.395Z,1.13
2022-12-29T05:19:39.303Z,0.80
2022-12-29T05:22:06.168Z,1.75
2022-12-29T05:24:33.056Z,1.30
2022-12-29T05:27:00.334Z,1.40
2022-12-29T05:29:27.062Z,1.60
2022-12-29T05:31:53.854Z,1.10
2022-12-29T05:34:20.587Z,0.95
2022-12-29T05:36:47.321Z,0.90
2022-12-29T05:39:14.055Z,1.00
2022-12-29T05:41:40.736Z,1.02
2022-12-29T05:44:07.510Z,1.00
2022-12-29T05:46:34.324Z,0.90
2022-12-29T05:49:01.084Z,1.20
2022-12-29T05:51:27.782Z,1.05
2022-12-29T05:53:54.610Z,1.23
2022-12-29T05:56:21.396Z,1.13
2022-12-29T05:58:49.133Z,1.13
2022-12-29T06:01:16.050Z,1.10
2022-12-29T06:03:48.169Z,1.00
2022-12-29T06:06:15.435Z,1.10
2022-12-29T06:08:42.244Z,0.93
2022-12-29T06:11:08.953Z,1.08
2022-12-29T06:13:35.638Z,1.17
2022-12-29T06:16:02.475Z,0.80
2022-12-29T06:18:29.253Z,1.27
2022-12-29T06:21:00.051Z,0.95
2022-12-29T06:23:26.742Z,0.95
2022-12-29T06:25:53.450Z,1.35
2022-12-29T06:28:20.149Z,1.52
2022-12-29T06:30:47.209Z,0.98
2022-12-29T06:33:14.198Z,0.82
2022-12-29T06:35:41.177Z,0.98
2022-12-29T06:38:07.928Z,1.00
2022-12-29T06:40:34.780Z,1.27
2022-12-29T06:43:01.583Z,1.10
2022-12-29T06:45:28.481Z,1.10
2022-12-29T06:47:55.201Z,1.10
2022-12-29T06:50:21.924Z,0.98
2022-12-29T06:52:48.994Z,0.80
2022-12-29T06:55:15.893Z,1.17
2022-12-29T06:57:42.557Z,0.90
2022-12-29T07:00:10.003Z,1.13
2022-12-29T07:02:36.823Z,0.90
2022-12-29T07:05:03.704Z,0.95
2022-12-29T07:07:30.375Z,1.17
2022-12-29T07:09:57.062Z,1.15
2022-12-29T07:12:23.805Z,1.70
2022-12-29T07:14:50.535Z,1.13
2022-12-29T07:17:17.201Z,0.80
2022-12-29T07:19:43.933Z,1.42
2022-12-29T07:22:10.934Z,3.15
2022-12-29T07:24:37.669Z,1.48
2022-12-29T07:27:04.826Z,1.20
2022-12-29T07:29:31.566Z,2.10
2022-12-29T07:31:58.456Z,2.70
2022-12-29T07:34:25.215Z,2.95
2022-12-29T07:36:51.918Z,1.40
2022-12-29T07:39:18.650Z,1.17
2022-12-29T07:41:45.363Z,1.20
2022-12-29T07:44:12.115Z,1.33
2022-12-29T07:46:56.232Z,1.50
2022-12-29T07:49:24.265Z,1.15
2022-12-29T07:51:51.006Z,1.35
2022-12-29T07:54:19.471Z,0.90
2022-12-29T07:56:46.681Z,0.90
2022-12-29T07:59:13.579Z,0.88
2022-12-29T08:01:40.437Z,1.52
2022-12-29T08:04:07.463Z,1.38
2022-12-29T08:06:34.432Z,1.70
2022-12-29T08:09:09.915Z,1.15
2022-12-29T08:11:40.008Z,0.98
2022-12-29T08:14:07.652Z,1.05
2022-12-29T08:16:34.589Z,1.25
2022-12-29T08:19:01.467Z,1.15
2022-12-29T08:21:28.699Z,0.80
2022-12-29T08:23:55.427Z,1.00
2022-12-29T08:26:22.237Z,0.93
2022-12-29T08:28:48.965Z,1.10
2022-12-29T08:31:15.784Z,1.00
2022-12-29T08:33:42.446Z,1.13
2022-12-29T08:36:09.898Z,0.95
2022-12-29T08:38:36.609Z,0.93
2022-12-29T08:41:03.484Z,1.23
2022-12-29T08:43:30.313Z,1.40
2022-12-29T08:45:58.962Z,0.95
2022-12-29T08:48:26.426Z,1.00
2022-12-29T08:50:53.473Z,0.93
2022-12-29T08:53:20.163Z,1.75
2022-12-29T08:56:02.407Z,0.90
2022-12-29T08:58:33.943Z,1.35
2022-12-29T09:01:02.537Z,0.88
2022-12-29T09:06:18.245Z,1.23
2022-12-29T09:08:46.303Z,1.02
2022-12-29T09:11:22.375Z,0.82
2022-12-29T09:13:50.181Z,1.17
2022-12-29T09:16:18.275Z,2.17
2022-12-29T09:18:45.885Z,1.02
2022-12-29T09:21:13.815Z,0.98
2022-12-29T09:23:41.972Z,1.00
2022-12-29T09:26:10.464Z,1.13
2022-12-29T09:28:38.251Z,0.80
2022-12-29T09:31:06.411Z,1.05
2022-12-29T09:33:37.852Z,1.00
2022-12-29T09:36:05.523Z,1.00
2022-12-29T09:38:32.946Z,1.20
2022-12-29T09:41:23.907Z,1.17
2022-12-29T09:44:14.458Z,2.03
2022-12-29T09:46:43.576Z,1.05
2022-12-29T09:49:20.572Z,1.45
2022-12-29T09:51:50.338Z,1.40
2022-12-29T09:54:33.010Z,2.17
2022-12-29T09:57:00.694Z,1.95
2022-12-29T09:59:42.669Z,1.85
2022-12-29T10:02:27.057Z,1.42
2022-12-29T10:04:54.529Z,4.03
2022-12-29T10:07:42.029Z,2.00
2022-12-29T10:10:25.061Z,1.10
2022-12-29T10:13:01.540Z,1.60
2022-12-29T10:15:44.222Z,1.30
2022-12-29T10:18:56.290Z,1.25
2022-12-29T10:21:49.635Z,1.10
2022-12-29T10:26:45.415Z,1.50
2022-12-29T10:29:20.753Z,1.48
2022-12-29T10:32:02.743Z,1.38
2022-12-29T10:34:41.647Z,1.60
2022-12-29T10:37:27.473Z,2.75
2022-12-29T10:40:00.844Z,1.70
2022-12-29T10:42:30.200Z,2.28
2022-12-29T10:44:59.125Z,3.67
2022-12-29T10:47:29.142Z,2.38
2022-12-29T10:49:56.733Z,2.60
2022-12-29T10:52:24.461Z,2.00
2022-12-29T10:54:57.893Z,1.80
2022-12-29T10:57:36.675Z,2.08
2022-12-29T11:00:14.097Z,2.15
2022-12-29T11:03:14.041Z,2.08
2022-12-29T11:05:43.369Z,1.25
2022-12-29T11:08:49.566Z,2.05
2022-12-29T11:11:17.187Z,1.40
2022-12-29T11:14:20.458Z,2.03
2022-12-29T11:17:00.221Z,1.70
2022-12-29T11:19:30.329Z,1.25
2022-12-29T11:22:26.899Z,0.93
2022-12-29T11:25:16.424Z,1.88
2022-12-29T11:27:45.168Z,1.25
2022-12-29T11:30:24.849Z,1.52
2022-12-29T11:32:55.091Z,1.45
2022-12-29T11:35:38.606Z,2.03
2022-12-29T11:38:06.172Z,1.98
2022-12-29T11:40:35.267Z,1.23
2022-12-29T11:43:05.574Z,1.25
2022-12-29T11:45:34.993Z,0.70
2022-12-29T11:48:22.372Z,1.02
2022-12-29T11:50:57.231Z,1.00
2022-12-29T11:53:24.202Z,1.13
2022-12-29T11:55:55.392Z,1.60
2022-12-29T11:58:22.499Z,1.40
2022-12-29T12:00:52.205Z,1.67
2022-12-29T12:03:24.357Z,1.55
2022-12-29T12:06:01.054Z,1.88
2022-12-29T12:08:50.467Z,1.70
2022-12-29T12:11:22.335Z,2.00
2022-12-29T12:13:58.317Z,1.30
2022-12-29T12:16:55.555Z,1.38
2022-12-29T12:19:41.583Z,2.33
2022-12-29T12:22:26.684Z,1.30
2022-12-29T12:25:00.579Z,1.23
2022-12-29T12:27:41.854Z,1.50
2022-12-29T12:30:21.576Z,1.42
2022-12-29T12:33:08.529Z,3.72
2022-12-29T12:36:10.524Z,1.77
2022-12-29T12:38:57.914Z,1.90
2022-12-29T12:41:46.665Z,1.30
2022-12-29T12:44:20.226Z,1.83
2022-12-29T12:47:05.715Z,1.58
2022-12-29T12:49:51.884Z,1.80
2022-12-29T12:52:25.201Z,1.38
2022-12-29T12:55:42.806Z,1.50
2022-12-29T12:58:43.367Z,1.27
2022-12-29T13:01:41.383Z,1.52
2022-12-29T13:04:35.879Z,1.55
2022-12-29T13:07:28.981Z,1.00
2022-12-29T13:10:57.903Z,0.82
2022-12-29T13:13:49.852Z,1.02
2022-12-29T13:16:24.996Z,1.63
2022-12-29T13:18:51.949Z,1.13
2022-12-29T13:22:06.723Z,1.10
2022-12-29T13:24:52.475Z,1.75
2022-12-29T13:27:44.193Z,0.98
2022-12-29T13:30:15.487Z,1.30
2022-12-29T13:33:00.470Z,1.10
2022-12-29T13:35:30.379Z,1.40
2022-12-29T13:38:22.582Z,1.30
2022-12-29T13:40:56.359Z,1.23
2022-12-29T13:43:23.089Z,1.10
2022-12-29T13:45:56.804Z,2.35
2022-12-29T13:48:25.678Z,1.00
2022-12-29T13:50:58.618Z,1.50
2022-12-29T13:53:42.289Z,2.10
2022-12-29T13:56:21.647Z,2.92
2022-12-29T13:58:57.309Z,2.47
2022-12-29T14:01:33.056Z,2.38
2022-12-29T14:04:01.668Z,2.20
2022-12-29T14:06:32.444Z,2.33
2022-12-29T14:09:00.362Z,1.38
2022-12-29T14:11:41.256Z,1.40
2022-12-29T14:14:25.948Z,1.38
2022-12-29T14:16:53.348Z,1.52
2022-12-29T14:19:42.261Z,1.38
2022-12-29T14:22:09.176Z,1.40
2022-12-29T14:24:35.963Z,1.23
2022-12-29T14:27:20.269Z,1.70
2022-12-29T14:29:51.659Z,1.45
2022-12-29T14:32:27.994Z,1.33
2022-12-29T14:34:58.987Z,1.92
2022-12-29T14:37:36.162Z,1.77
2022-12-29T14:40:06.197Z,1.42
2022-12-29T14:42:32.984Z,1.30
2022-12-29T14:45:11.685Z,1.50
2022-12-29T14:47:40.028Z,1.63
2022-12-29T14:50:14.116Z,1.60
2022-12-29T14:53:00.056Z,1.60
2022-12-29T14:55:48.679Z,1.55
2022-12-29T14:58:16.158Z,2.13
2022-12-29T15:00:42.961Z,2.10
2022-12-29T15:03:25.404Z,1.50
2022-12-29T15:05:54.309Z,1.48
2022-12-29T15:08:23.701Z,2.63
2022-12-29T15:10:57.617Z,3.05
2022-12-29T15:13:33.138Z,1.88
2022-12-29T15:16:00.004Z,1.52
2022-12-29T15:18:29.659Z,1.42
2022-12-29T15:21:01.577Z,1.65
2022-12-29T15:23:28.506Z,1.48
2022-12-29T15:25:59.323Z,1.65
2022-12-29T15:28:26.773Z,1.67
2022-12-29T15:30:58.839Z,1.38
2022-12-29T15:33:27.677Z,1.57
2022-12-29T15:35:56.076Z,1.40
2022-12-29T15:38:34.507Z,1.40
2022-12-29T15:41:07.346Z,1.70
2022-12-29T15:43:46.543Z,1.67
2022-12-29T15:46:14.562Z,1.60
2022-12-29T15:48:41.860Z,1.27
2022-12-29T15:51:31.370Z,1.05
2022-12-29T15:53:58.783Z,0.80
2022-12-29T15:56:26.121Z,1.00
2022-12-29T15:58:53.558Z,0.90
2022-12-29T16:01:29.796Z,0.50
2022-12-29T16:03:58.147Z,1.02
2022-12-29T16:06:45.792Z,1.00
2022-12-29T16:09:33.934Z,0.80
2022-12-29T16:12:04.943Z,1.10
2022-12-29T16:14:41.178Z,1.30
2022-12-29T16:17:11.022Z,1.40
2022-12-29T16:19:39.025Z,1.30
2022-12-29T16:22:13.939Z,1.77
2022-12-29T16:24:41.297Z,1.60
2022-12-29T16:27:21.978Z,1.40
2022-12-29T16:29:53.135Z,1.65
2022-12-29T16:32:30.622Z,1.50
2022-12-29T16:35:24.869Z,2.03
2022-12-29T16:38:14.788Z,2.25
2022-12-29T16:40:58.756Z,1.83
2022-12-29T16:43:27.721Z,2.15
2022-12-29T16:45:54.516Z,1.50
2022-12-29T16:48:22.618Z,1.95
2022-12-29T16:50:49.605Z,2.13
2022-12-29T16:53:21.775Z,2.35
2022-12-29T16:55:53.537Z,1.60
2022-12-29T16:58:25.574Z,1.75
2022-12-29T17:00:56.935Z,2.03
2022-12-29T17:03:24.703Z,1.65
2022-12-29T17:05:57.091Z,1.80
2022-12-29T17:08:24.318Z,1.75
2022-12-29T17:11:11.229Z,2.10
2022-12-29T17:13:37.958Z,2.20
2022-12-29T17:16:06.332Z,1.75
2022-12-29T17:18:33.010Z,1.40
2022-12-29T17:20:59.776Z,1.30
2022-12-29T17:23:26.952Z,1.67
2022-12-29T17:25:54.481Z,1.70
2022-12-29T17:28:26.220Z,1.40
2022-12-29T17:30:53.766Z,1.75
2022-12-29T17:33:21.048Z,2.05
2022-12-29T17:35:53.211Z,2.80
2022-12-29T17:38:32.672Z,2.60
2022-12-29T17:40:59.538Z,2.38
2022-12-29T17:43:30.037Z,2.20
2022-12-29T17:46:01.579Z,1.50
2022-12-29T17:48:28.366Z,1.48
2022-12-29T17:50:55.261Z,2.00
2022-12-29T17:53:27.106Z,2.80
2022-12-29T17:55:53.894Z,2.10
2022-12-29T17:58:23.485Z,1.70
2022-12-29T18:00:54.696Z,2.53
2022-12-29T18:03:24.895Z,3.33
2022-12-29T18:05:51.924Z,4.00
2022-12-29T18:08:18.704Z,3.72
2022-12-29T18:10:45.752Z,2.65
2022-12-29T18:13:25.903Z,1.30
2022-12-29T18:15:55.552Z,1.73
2022-12-29T18:18:24.032Z,1.10
2022-12-29T18:20:51.998Z,1.77
2022-12-29T18:23:29.057Z,1.85
2022-12-29T18:26:00.040Z,1.33
2022-12-29T18:28:29.048Z,1.35
2022-12-29T18:31:00.527Z,1.10
2022-12-29T18:33:27.812Z,1.48
2022-12-29T18:36:05.151Z,1.23
2022-12-29T18:38:32.068Z,1.00
2022-12-29T18:40:59.479Z,0.70
2022-12-29T18:43:26.337Z,1.08
2022-12-29T18:45:53.375Z,2.83
2022-12-29T18:48:20.510Z,1.17
2022-12-29T18:50:49.959Z,0.93
2022-12-29T18:53:23.253Z,1.10
2022-12-29T18:55:54.064Z,1.00
2022-12-29T18:58:20.883Z,1.10
2022-12-29T19:00:47.913Z,0.88
2022-12-29T19:03:16.912Z,1.35
2022-12-29T19:05:44.740Z,0.95
2022-12-29T19:08:12.155Z,1.60
2022-12-29T19:10:39.539Z,1.90
2022-12-29T19:13:06.738Z,1.77
2022-12-29T19:15:35.616Z,2.08
2022-12-29T19:20:52.590Z,1.67
2022-12-29T19:23:24.290Z,1.83
2022-12-29T19:25:51.462Z,2.53
2022-12-29T19:28:28.446Z,2.40
2022-12-29T19:30:59.812Z,2.67
2022-12-29T19:33:26.840Z,1.88
2022-12-29T19:35:53.674Z,1.27
2022-12-29T19:38:20.559Z,1.30
2022-12-29T19:40:52.877Z,1.05
2022-12-29T19:43:20.094Z,1.50
2022-12-29T19:45:46.766Z,0.90
2022-12-29T19:48:19.493Z,1.30
2022-12-29T19:50:46.350Z,1.00
2022-12-29T19:53:13.406Z,1.00
2022-12-29T19:55:44.624Z,1.70
2022-12-29T19:58:12.737Z,2.35
2022-12-29T20:00:43.599Z,3.40
2022-12-29T20:03:12.485Z,6.88
2022-12-29T20:05:43.363Z,3.22
2022-12-29T20:08:17.257Z,3.90
2022-12-29T20:10:45.741Z,1.45
2022-12-29T20:13:17.677Z,1.40
2022-12-29T20:15:44.789Z,1.70
2022-12-29T20:18:15.332Z,2.13
2022-12-29T20:23:24.604Z,2.88
2022-12-29T20:25:56.056Z,2.75
2022-12-29T20:28:23.057Z,1.80
2022-12-29T20:31:08.934Z,1.52
2022-12-29T20:33:36.428Z,2.35
2022-12-29T20:36:11.911Z,1.17
2022-12-29T20:38:39.206Z,1.40
2022-12-29T20:41:05.995Z,1.33
2022-12-29T20:43:32.936Z,2.25
2022-12-29T20:46:00.220Z,1.80
2022-12-29T20:48:27.387Z,1.77
2022-12-29T20:50:55.030Z,1.50
2022-12-29T20:53:22.072Z,0.90
2022-12-29T20:55:53.385Z,0.80
2022-12-29T20:58:24.352Z,1.17
2022-12-29T21:00:52.258Z,1.02
2022-12-29T21:03:19.706Z,1.08
2022-12-29T21:05:48.599Z,1.30
2022-12-29T21:08:15.477Z,0.75
2022-12-29T21:10:45.086Z,1.35
2022-12-29T21:13:14.939Z,1.40
2022-12-29T21:15:44.228Z,0.73
2022-12-29T21:18:11.136Z,0.55
2022-12-29T21:20:38.754Z,0.80
2022-12-29T21:23:07.074Z,1.30
2022-12-29T21:25:40.917Z,1.73
2022-12-29T21:28:09.415Z,1.10
2022-12-29T21:30:36.304Z,1.05
2022-12-29T21:33:04.134Z,1.17
2022-12-29T21:39:34.443Z,1.77
2022-12-29T21:42:02.717Z,0.90
2022-12-29T21:44:47.817Z,1.67
2022-12-29T21:47:14.839Z,0.95
2022-12-29T21:49:43.376Z,0.90
2022-12-29T21:52:10.123Z,1.10
2022-12-29T21:54:57.625Z,1.17
2022-12-29T21:57:50.907Z,1.77
2022-12-29T22:06:42.455Z,1.40
2022-12-29T22:12:48.231Z,1.30
2022-12-29T22:15:41.013Z,0.98
2022-12-29T22:18:17.318Z,1.60
2022-12-29T22:21:09.983Z,0.70
2022-12-29T22:23:42.887Z,0.93
2022-12-29T22:26:14.355Z,0.80
2022-12-29T22:28:53.863Z,0.80
2022-12-29T22:32:02.963Z,0.73
2022-12-29T22:34:46.079Z,1.05
2022-12-29T22:37:43.622Z,1.42
2022-12-29T22:40:22.630Z,1.10
2022-12-29T22:42:49.324Z,0.88
2022-12-29T22:45:16.038Z,1.10
2022-12-29T22:47:42.768Z,1.10
2022-12-29T22:50:09.863Z,1.25
2022-12-29T22:52:36.724Z,1.00
2022-12-29T22:55:06.989Z,1.60
2022-12-29T22:57:34.881Z,0.82
2022-12-29T23:00:01.555Z,0.80
2022-12-29T23:02:28.575Z,0.40
2022-12-29T23:05:04.475Z,0.65
2022-12-29T23:07:32.976Z,0.73
2022-12-29T23:09:59.671Z,0.70
2022-12-29T23:12:28.075Z,0.35
2022-12-29T23:14:54.706Z,0.50
2022-12-29T23:17:21.419Z,0.98
2022-12-29T23:19:48.042Z,0.90
2022-12-29T23:22:15.067Z,0.60
2022-12-29T23:24:41.713Z,0.50
2022-12-29T23:27:08.449Z,0.52
2022-12-29T23:29:35.183Z,0.40
2022-12-29T23:32:01.880Z,0.68
2022-12-29T23:34:28.643Z,0.40
2022-12-29T23:36:55.382Z,0.68
2022-12-29T23:39:26.013Z,0.80
2022-12-29T23:41:53.003Z,1.30
2022-12-29T23:44:19.700Z,0.50
2022-12-29T23:46:46.517Z,1.48
2022-12-29T23:49:13.257Z,0.73
2022-12-29T23:51:40.036Z,0.50
2022-12-29T23:54:06.806Z,0.60
2022-12-29T23:56:33.613Z,0.57
2022-12-29T23:59:00.286Z,0.80
